South Barre, MA (01074)

12:09 PM EST on December 22, 2014 (GMT -0500)
45 fuller rd barre,ma, 01005 | Change Station
CLOSE
Current Station
Personal Weather Station
Location: Barre, MA
Elevation: 994 ft
Nearby Weather Stations

Elev 994 ft 42.40 °N, 72.14 °W | Updated 58 seconds ago

Overcast
Overcast
36.6 °F
Feels Like 37 °F
N
0.0
Wind Variable Wind from NE
Gusts 2.0 mph

Today
High -- | Low -- °F
--% Chance of Precip.
Yesterday
High -- | Low -- °F
Precip. -- in
7:14 AM 4:19 PM
New Moon, 1% visible
Pressure 30.35 in
Visibility 10.0 miles
Clouds Mostly Cloudy 900 ft
Overcast 1500 ft
Windchill 37 °F
Dew Point 34 °F
Humidity 90%
Rainfall 0.00 in
Snow Depth Not available.
UV 0.8 out of 12
Pollen .10 out of 12
Air Quality Not available.
Flu Activity Not available.
METAR KORH 221654Z 08004KT 10SM BKN009 OVC015 01/M01 A3031 RMK AO2 SLP278 T00111011

More Conditions Fewer Conditions

Pressure 30.35 in
Visibility 10.0 miles
Clouds Mostly Cloudy 900 ft
Overcast 1500 ft
Windchill 37 °F
Dew Point 34 °F
Humidity 90%
Rainfall 0.00 in
Snow Depth Not available.
UV 0.8 out of 12
Pollen .10 out of 12
Air Quality Not available.
Flu Activity Not available.
METAR KORH 221654Z 08004KT 10SM BKN009 OVC015 01/M01 A3031 RMK AO2 SLP278 T00111011

More Conditions Fewer Conditions

10-Day Weather Forecast

Almanac

Astronomy

Dec. 22, 2014 Rise Set
Actual Time
Civil Twilight
Nautical Twilight
Astronomical Twilight
Moon
Length of Visible Light
Length of Day
Tomorrow will be .
, % of the Moon is Illuminated

Today's Extremes

State Highs State Lows

Community

WunderPhotos

Upload Photos

1,779,645 photos uploaded!

WunderBlogs® & News

Nearby

Air Quality

  Air Quality AQ Index Pollutant
Not available.

Snow Depth

Station Depth Elevation

Earthquake Activity

City Distance Mag. Time & Date
Minimum magnitude displayed is 2.5.

Coastal Water Temperatures

Place Temperature

Nearby Weather Stations